Time;durP1;ratioP1;P1;durP2;ratioP2;P2;SDS_P1;SDS_P2;PMS_P1;PMS_P2;Temp;Humidity;BMP_temperature;BMP_pressure;BME280_temperature;BME280_humidity;BME280_pressure;Samples;Min_cycle;Max_cycle;Signal;HPM_P1;HPM_P2
2022/09/30 00:01:44;;;;;;;7.30;3.83;;;11.10;99.90;;;;;;5114186;27;20038;-82
2022/09/30 00:04:14;;;;;;;7.85;3.90;;;11.00;99.90;;;;;;5114517;27;20031;-82
2022/09/30 00:06:40;;;;;;;7.22;4.15;;;11.00;99.90;;;;;;5097898;27;20121;-82
2022/09/30 00:09:06;;;;;;;8.10;4.70;;;11.00;99.90;;;;;;5097643;27;20122;-81
2022/09/30 00:11:34;;;;;;;8.13;4.20;;;11.00;99.90;;;;;;5097027;27;20041;-82
2022/09/30 00:14:00;;;;;;;7.05;3.35;;;11.00;99.90;;;;;;5119925;27;20039;-82
2022/09/30 00:16:30;;;;;;;6.88;3.10;;;10.90;99.90;;;;;;5106637;27;20035;-82
2022/09/30 00:18:57;;;;;;;7.35;3.28;;;10.80;99.90;;;;;;5123370;27;20415;-82
2022/09/30 00:21:24;;;;;;;7.15;3.67;;;10.70;99.90;;;;;;5125279;27;20053;-82
2022/09/30 00:23:50;;;;;;;7.03;4.05;;;10.70;99.90;;;;;;5125489;27;20029;-82
2022/09/30 00:26:18;;;;;;;6.55;3.55;;;10.60;99.90;;;;;;5123939;27;20031;-82
2022/09/30 00:28:47;;;;;;;6.13;3.22;;;10.70;99.90;;;;;;5134808;27;20042;-82
2022/09/30 00:31:15;;;;;;;5.68;3.10;;;10.60;99.90;;;;;;5117615;27;20039;-82
2022/09/30 00:33:42;;;;;;;9.77;3.90;;;10.60;99.90;;;;;;5134955;27;20515;-82
2022/09/30 00:36:09;;;;;;;6.80;3.53;;;10.60;99.90;;;;;;5117754;27;20043;-82
2022/09/30 00:38:34;;;;;;;7.30;4.25;;;10.50;99.90;;;;;;5117684;27;20487;-82
2022/09/30 00:41:01;;;;;;;7.40;4.13;;;10.50;99.90;;;;;;5152544;27;20050;-82
2022/09/30 00:43:50;;;;;;;8.60;4.63;;;10.50;99.90;;;;;;5117516;27;20078;-82
2022/09/30 00:46:37;;;;;;;7.60;3.95;;;10.40;99.90;;;;;;5135261;27;20404;-82
2022/09/30 00:49:13;;;;;;;8.80;4.40;;;10.50;99.90;;;;;;5117379;27;20125;-82
2022/09/30 00:51:48;;;;;;;9.50;4.78;;;10.40;99.90;;;;;;5117658;27;20042;-82
2022/09/30 00:54:24;;;;;;;8.88;4.68;;;10.40;99.90;;;;;;5134717;27;20035;-82
2022/09/30 00:56:54;;;;;;;9.40;4.75;;;10.40;99.90;;;;;;5134495;27;20085;-82
2022/09/30 00:59:27;;;;;;;9.10;4.43;;;10.30;99.90;;;;;;5134719;27;20030;-82
2022/09/30 01:01:53;;;;;;;10.63;5.95;;;10.40;99.90;;;;;;5116840;27;20039;-82
2022/09/30 01:04:22;;;;;;;12.05;6.50;;;10.40;99.90;;;;;;5117236;27;20038;-82
2022/09/30 01:06:49;;;;;;;8.30;4.82;;;10.40;99.90;;;;;;5134539;27;20045;-82
2022/09/30 01:09:15;;;;;;;8.80;5.10;;;10.40;99.90;;;;;;5134528;27;20496;-82
2022/09/30 01:11:41;;;;;;;8.98;4.90;;;10.40;99.90;;;;;;5153213;27;20034;-82
2022/09/30 01:14:15;;;;;;;9.48;5.50;;;10.40;99.90;;;;;;5138784;27;20049;-82
2022/09/30 01:16:49;;;;;;;9.57;5.55;;;10.40;99.90;;;;;;5138782;27;20049;-82
2022/09/30 01:19:39;;;;;;;8.77;5.57;;;10.40;99.90;;;;;;5138388;27;20038;-82
2022/09/30 01:22:08;;;;;;;7.68;4.10;;;10.40;99.90;;;;;;5138427;27;20035;-82
2022/09/30 01:25:04;;;;;;;35.88;5.22;;;10.30;99.90;;;;;;5138669;27;20066;-82
2022/09/30 01:27:50;;;;;;;8.77;3.97;;;10.20;99.90;;;;;;5138546;27;20035;-82
2022/09/30 01:30:33;;;;;;;7.38;4.03;;;10.10;99.90;;;;;;5138440;27;20038;-82
2022/09/30 01:33:20;;;;;;;8.20;4.32;;;10.00;99.90;;;;;;5137822;27;20035;-82
2022/09/30 01:35:59;;;;;;;7.07;3.63;;;10.00;99.90;;;;;;5121506;27;20043;-82
2022/09/30 01:38:26;;;;;;;7.15;3.50;;;9.90;99.90;;;;;;5138207;27;20084;-82
2022/09/30 01:41:21;;;;;;;6.80;3.58;;;9.90;99.90;;;;;;5137420;27;20050;-82
2022/09/30 01:44:13;;;;;;;6.30;2.97;;;9.90;99.90;;;;;;5121326;27;20392;-82
2022/09/30 01:46:43;;;;;;;11.35;3.42;;;9.80;99.90;;;;;;5138161;27;20039;-82
2022/09/30 01:49:33;;;;;;;6.78;3.67;;;9.70;99.90;;;;;;5137699;27;20069;-82
2022/09/30 01:52:12;;;;;;;8.57;4.60;;;9.70;99.90;;;;;;5138055;27;20042;-82
2022/09/30 01:54:46;;;;;;;8.35;4.80;;;9.70;99.90;;;;;;5137767;27;20091;-82
2022/09/30 01:57:30;;;;;;;10.15;5.03;;;9.70;99.90;;;;;;5137857;27;20035;-82
2022/09/30 02:00:07;;;;;;;11.55;5.35;;;9.70;99.90;;;;;;5137999;27;20491;-82
2022/09/30 02:02:42;;;;;;;8.75;5.10;;;9.70;99.90;;;;;;5137219;27;20119;-82
2022/09/30 02:05:14;;;;;;;9.40;5.63;;;9.70;99.90;;;;;;5137745;27;20046;-82
2022/09/30 02:07:53;;;;;;;9.77;5.43;;;9.70;99.90;;;;;;5137711;27;20046;-82
2022/09/30 02:10:34;;;;;;;11.15;6.45;;;9.70;99.90;;;;;;5120237;27;20076;-82
2022/09/30 02:13:08;;;;;;;9.00;5.82;;;9.80;99.90;;;;;;5137561;27;20044;-82
2022/09/30 02:15:41;;;;;;;11.13;5.97;;;9.80;99.90;;;;;;5137864;27;20042;-82
2022/09/30 02:18:20;;;;;;;10.48;5.95;;;9.80;99.90;;;;;;5136955;27;20411;-82
2022/09/30 02:20:50;;;;;;;8.68;5.28;;;9.80;99.90;;;;;;5120280;27;20049;-82
2022/09/30 02:23:24;;;;;;;9.25;5.50;;;9.80;99.90;;;;;;5119418;27;20368;-82
2022/09/30 02:26:06;;;;;;;9.52;5.65;;;9.80;99.90;;;;;;5137159;27;20074;-82
2022/09/30 02:28:34;;;;;;;9.82;5.75;;;9.70;99.90;;;;;;5120131;27;20453;-82
2022/09/30 02:31:03;;;;;;;9.27;5.38;;;9.70;99.90;;;;;;5136753;27;20047;-82
2022/09/30 02:33:38;;;;;;;9.02;5.85;;;9.70;99.90;;;;;;5136728;27;20083;-82
2022/09/30 02:36:14;;;;;;;8.43;5.20;;;9.70;99.90;;;;;;5120380;27;20430;-82
2022/09/30 02:38:45;;;;;;;10.52;5.32;;;9.60;99.90;;;;;;5137070;27;20042;-82
2022/09/30 02:41:25;;;;;;;19.40;5.55;;;9.60;99.90;;;;;;5136231;27;20047;-82
2022/09/30 02:43:53;;;;;;;9.35;4.90;;;9.40;99.90;;;;;;5119876;27;20046;-82
2022/09/30 02:46:43;;;;;;;9.63;5.85;;;9.40;99.90;;;;;;5137045;27;20117;-82
2022/09/30 02:49:21;;;;;;;11.05;5.63;;;9.40;99.90;;;;;;5136860;27;20038;-81
2022/09/30 02:52:26;;;;;;;9.85;6.18;;;9.40;99.90;;;;;;5135764;27;20079;-82
2022/09/30 02:55:10;;;;;;;9.57;6.05;;;9.40;99.90;;;;;;5136839;27;20034;-82
2022/09/30 02:57:48;;;;;;;12.20;6.07;;;9.40;99.90;;;;;;5136520;27;20074;-82
2022/09/30 03:00:15;;;;;;;9.63;6.15;;;9.40;99.90;;;;;;5155084;27;20035;-82
2022/09/30 03:02:41;;;;;;;10.05;6.00;;;9.40;99.90;;;;;;5154499;27;20101;-82
2022/09/30 03:05:08;;;;;;;10.82;6.28;;;9.40;99.90;;;;;;5136495;27;20038;-82
2022/09/30 03:07:34;;;;;;;12.80;6.05;;;9.40;99.90;;;;;;5118705;27;20087;-82
2022/09/30 03:10:00;;;;;;;10.73;7.07;;;9.40;99.90;;;;;;5135026;27;20568;-82
2022/09/30 03:12:54;;;;;;;11.20;6.15;;;9.40;99.90;;;;;;5135322;27;20039;-82
2022/09/30 03:16:10;;;;;;;8.13;4.00;;;9.40;99.90;;;;;;5118698;27;20499;-82
2022/09/30 03:19:10;;;;;;;7.60;3.35;;;9.30;99.90;;;;;;5076143;27;20058;-82
2022/09/30 03:22:00;;;;;;;6.40;3.08;;;9.20;99.90;;;;;;5135635;27;20041;-82
2022/09/30 03:24:26;;;;;;;5.13;2.15;;;9.00;99.90;;;;;;5118368;27;20046;-82
2022/09/30 03:27:31;;;;;;;7.55;2.67;;;8.90;99.90;;;;;;5135940;27;20039;-81
2022/09/30 03:30:04;;;;;;;34.78;4.18;;;8.70;99.90;;;;;;5088420;27;20078;-82
2022/09/30 03:32:48;;;;;;;25.95;4.60;;;8.60;99.90;;;;;;5135513;27;20084;-82
2022/09/30 03:35:17;;;;;;;66.30;5.10;;;8.60;99.90;;;;;;5134788;27;20087;-82
2022/09/30 03:37:55;;;;;;;6.93;2.90;;;8.60;99.90;;;;;;5135718;27;20467;-82
2022/09/30 03:40:42;;;;;;;8.80;3.35;;;8.50;99.90;;;;;;5135469;27;20395;-82
2022/09/30 03:43:25;;;;;;;13.30;3.22;;;8.50;99.90;;;;;;5135623;27;20058;-82
2022/09/30 03:45:53;;;;;;;14.23;4.07;;;8.40;99.90;;;;;;5135622;27;20030;-82
2022/09/30 03:48:21;;;;;;;7.35;3.92;;;8.30;99.90;;;;;;5135863;27;20034;-82
2022/09/30 03:50:47;;;;;;;6.65;3.35;;;8.30;99.90;;;;;;5135927;27;20445;-82
2022/09/30 03:53:13;;;;;;;6.43;3.28;;;8.40;99.90;;;;;;5135411;27;20038;-82
2022/09/30 03:55:46;;;;;;;7.65;4.25;;;8.40;99.90;;;;;;5118320;27;20083;-81
2022/09/30 03:58:13;;;;;;;7.80;4.30;;;8.40;99.90;;;;;;5134939;27;20049;-82
2022/09/30 04:00:43;;;;;;;7.80;3.78;;;8.40;99.90;;;;;;5134517;27;20087;-82
2022/09/30 04:03:08;;;;;;;7.95;3.80;;;8.40;99.90;;;;;;5118150;27;20038;-82
2022/09/30 04:05:34;;;;;;;4.18;1.98;;;8.40;99.90;;;;;;5135696;27;20102;-82
2022/09/30 04:07:59;;;;;;;4.95;2.00;;;8.30;99.90;;;;;;5134361;27;20568;-82
2022/09/30 04:10:25;;;;;;;6.15;2.47;;;8.20;99.90;;;;;;5135437;27;20046;-82
2022/09/30 04:12:53;;;;;;;5.75;2.60;;;8.10;99.90;;;;;;5135097;27;20132;-82
2022/09/30 04:15:18;;;;;;;4.18;1.70;;;8.00;99.90;;;;;;5134605;27;20050;-82
2022/09/30 04:17:44;;;;;;;3.05;1.50;;;7.80;99.90;;;;;;5134538;27;20042;-82
2022/09/30 04:20:11;;;;;;;4.40;1.90;;;7.70;99.90;;;;;;5118308;27;20035;-82
2022/09/30 04:22:37;;;;;;;4.18;1.90;;;7.70;99.90;;;;;;5117777;27;20039;-82
2022/09/30 04:25:03;;;;;;;4.78;1.95;;;7.70;99.90;;;;;;5134780;27;20042;-81
2022/09/30 04:27:29;;;;;;;5.88;2.53;;;7.70;99.90;;;;;;5135257;27;20400;-81
2022/09/30 04:29:54;;;;;;;6.88;2.97;;;7.70;99.90;;;;;;5134944;27;20121;-82
2022/09/30 04:32:24;;;;;;;16.33;3.20;;;7.70;99.90;;;;;;5134424;27;20047;-82
2022/09/30 04:34:51;;;;;;;11.73;3.40;;;7.60;99.90;;;;;;5134880;27;20042;-82
2022/09/30 04:37:16;;;;;;;28.75;3.50;;;7.60;99.90;;;;;;5117197;27;20042;-81
2022/09/30 04:39:43;;;;;;;24.45;3.35;;;7.60;99.90;;;;;;5134441;27;20039;-81
2022/09/30 04:42:08;;;;;;;26.10;3.97;;;7.60;99.90;;;;;;5134531;27;20031;-81
2022/09/30 04:44:34;;;;;;;4.65;2.20;;;7.50;99.90;;;;;;5134867;27;20488;-81
2022/09/30 04:47:00;;;;;;;5.93;2.67;;;7.40;99.90;;;;;;5117367;27;20384;-81
2022/09/30 04:49:25;;;;;;;8.77;4.40;;;7.50;99.90;;;;;;5135081;27;20653;-81
2022/09/30 04:51:51;;;;;;;8.23;4.63;;;7.50;99.90;;;;;;5117292;27;20042;-82
2022/09/30 04:54:16;;;;;;;6.30;3.20;;;7.60;99.90;;;;;;5134382;27;20073;-82
2022/09/30 04:56:42;;;;;;;5.72;2.83;;;7.60;99.90;;;;;;5117389;27;20050;-81
2022/09/30 04:59:08;;;;;;;4.60;2.05;;;7.50;99.90;;;;;;5134550;27;20035;-82
2022/09/30 05:01:33;;;;;;;6.25;2.40;;;7.50;99.90;;;;;;5133757;27;20043;-82
2022/09/30 05:03:59;;;;;;;4.97;2.22;;;7.50;99.90;;;;;;5134661;27;20035;-81
2022/09/30 05:06:25;;;;;;;4.80;2.20;;;7.40;99.90;;;;;;5134994;27;20104;-81
2022/09/30 05:08:50;;;;;;;4.28;2.10;;;7.30;99.90;;;;;;5134123;27;20114;-81
2022/09/30 05:11:18;;;;;;;5.13;2.17;;;7.30;99.90;;;;;;5122239;28;20043;-81
2022/09/30 05:13:45;;;;;;;5.57;2.60;;;7.30;99.90;;;;;;5112606;28;20582;-81
2022/09/30 05:16:11;;;;;;;7.50;3.58;;;7.30;99.90;;;;;;5112983;28;20039;-81
2022/09/30 05:18:39;;;;;;;8.30;4.28;;;7.30;99.90;;;;;;5112733;28;20085;-81
2022/09/30 05:21:05;;;;;;;8.45;5.15;;;7.40;99.90;;;;;;5095786;28;20070;-81
2022/09/30 05:23:32;;;;;;;10.13;5.93;;;7.50;99.90;;;;;;5112817;28;20073;-81
2022/09/30 05:25:58;;;;;;;10.35;6.07;;;7.50;99.90;;;;;;5095794;28;20062;-81
2022/09/30 05:28:24;;;;;;;11.32;7.07;;;7.60;99.90;;;;;;5112826;28;20544;-81
2022/09/30 05:30:56;;;;;;;9.85;6.40;;;7.60;99.90;;;;;;5113048;28;20043;-81
2022/09/30 05:33:22;;;;;;;11.32;6.43;;;7.70;99.90;;;;;;5095962;28;20038;-81
2022/09/30 05:35:47;;;;;;;10.20;6.05;;;7.70;99.90;;;;;;5112872;28;20039;-81
2022/09/30 05:38:13;;;;;;;13.05;7.45;;;7.80;99.90;;;;;;5112640;28;20061;-81
2022/09/30 05:40:39;;;;;;;13.75;6.50;;;7.80;99.90;;;;;;5113100;28;20546;-81
2022/09/30 05:43:06;;;;;;;11.73;6.63;;;7.80;99.90;;;;;;5112422;28;20042;-81
2022/09/30 05:45:32;;;;;;;10.52;6.63;;;7.80;99.90;;;;;;5113100;28;20083;-81
2022/09/30 05:47:58;;;;;;;11.45;6.90;;;7.80;99.90;;;;;;5112670;28;20444;-81
2022/09/30 05:50:24;;;;;;;12.10;6.88;;;7.90;99.90;;;;;;5112605;28;20052;-81
2022/09/30 05:52:50;;;;;;;10.70;6.93;;;7.90;99.90;;;;;;5095885;28;20039;-81
2022/09/30 05:55:17;;;;;;;10.63;6.45;;;7.90;99.90;;;;;;5095237;28;20046;-81
2022/09/30 05:57:45;;;;;;;29.20;5.82;;;7.80;99.90;;;;;;5112658;27;20039;-81
2022/09/30 06:00:11;;;;;;;12.45;6.60;;;7.80;99.90;;;;;;5098228;27;20065;-81
2022/09/30 06:02:37;;;;;;;10.10;5.78;;;7.80;99.90;;;;;;5116213;27;20061;-81
2022/09/30 06:05:07;;;;;;;10.30;6.43;;;7.80;99.90;;;;;;5099602;27;20760;-81
2022/09/30 06:07:33;;;;;;;10.30;6.50;;;7.80;99.90;;;;;;5116296;27;20142;-81
2022/09/30 06:10:00;;;;;;;9.45;5.97;;;7.80;99.90;;;;;;5097201;27;20043;-81
2022/09/30 06:12:27;;;;;;;9.57;6.03;;;7.90;99.90;;;;;;5116168;27;20051;-82
2022/09/30 06:14:54;;;;;;;11.32;5.78;;;7.80;99.90;;;;;;5099729;27;20663;-81
2022/09/30 06:17:20;;;;;;;10.18;6.10;;;7.80;99.90;;;;;;5115761;27;20100;-81
2022/09/30 06:19:46;;;;;;;9.63;5.80;;;7.80;99.90;;;;;;5115829;27;20115;-82
2022/09/30 06:22:11;;;;;;;10.70;7.32;;;7.80;99.90;;;;;;5115357;27;20125;-81
2022/09/30 06:24:37;;;;;;;10.25;6.05;;;7.80;99.90;;;;;;5116136;27;20462;-82
2022/09/30 06:27:03;;;;;;;13.40;7.30;;;7.80;99.90;;;;;;5099473;27;20043;-82
2022/09/30 06:29:29;;;;;;;11.52;6.63;;;7.80;99.90;;;;;;5115901;27;20043;-82
2022/09/30 06:31:54;;;;;;;10.75;6.70;;;7.90;99.90;;;;;;5119883;27;20555;-81
2022/09/30 06:34:20;;;;;;;12.35;7.68;;;7.90;99.90;;;;;;5130164;27;20531;-81
2022/09/30 06:36:45;;;;;;;12.13;7.32;;;7.90;99.90;;;;;;5108849;27;20100;-81
2022/09/30 06:39:11;;;;;;;12.32;7.47;;;8.00;99.90;;;;;;5108154;27;20035;-81
2022/09/30 06:41:39;;;;;;;14.57;8.07;;;8.00;99.90;;;;;;5107006;27;20480;-81
2022/09/30 06:44:04;;;;;;;13.77;8.48;;;8.10;99.90;;;;;;5126249;27;20031;-81
2022/09/30 06:46:30;;;;;;;11.35;7.32;;;8.10;99.90;;;;;;5124961;27;20522;-81
2022/09/30 06:48:57;;;;;;;11.57;7.80;;;8.10;99.90;;;;;;5134126;27;20043;-82
2022/09/30 06:51:25;;;;;;;13.35;7.78;;;8.20;99.90;;;;;;5120362;27;20437;-82
2022/09/30 06:53:55;;;;;;;11.88;7.10;;;8.20;99.90;;;;;;5115389;27;20075;-81
2022/09/30 06:56:21;;;;;;;13.98;7.90;;;8.20;99.90;;;;;;5098253;27;20523;-81
2022/09/30 06:58:47;;;;;;;12.75;8.27;;;8.30;99.90;;;;;;5097565;27;20547;-81
2022/09/30 07:01:13;;;;;;;12.48;7.55;;;8.30;99.90;;;;;;5114967;27;20184;-81
2022/09/30 07:03:43;;;;;;;12.32;7.80;;;8.40;99.90;;;;;;5115014;27;20084;-81
2022/09/30 07:06:11;;;;;;;12.80;7.38;;;8.40;99.90;;;;;;5114799;27;20057;-82
2022/09/30 07:08:37;;;;;;;11.05;7.38;;;8.50;99.90;;;;;;5097609;27;20508;-81
2022/09/30 07:11:13;;;;;;;11.88;7.30;;;8.50;99.90;;;;;;5115355;27;20400;-82
2022/09/30 07:13:46;;;;;;;11.23;7.30;;;8.50;99.90;;;;;;5115371;27;20050;-82
2022/09/30 07:16:12;;;;;;;;;;;8.60;99.90;;;;;;5115427;27;20045;-82
2022/09/30 07:18:41;;;;;;;11.45;6.85;;;8.60;99.90;;;;;;5115112;27;20018;-81
2022/09/30 07:21:08;;;;;;;12.57;8.05;;;8.60;99.90;;;;;;5097183;27;20454;-81
2022/09/30 07:23:33;;;;;;;12.43;8.00;;;8.70;99.90;;;;;;5114172;27;20084;-82
2022/09/30 07:26:03;;;;;;;11.00;7.60;;;8.70;99.90;;;;;;5115241;27;20039;-81
2022/09/30 07:28:32;;;;;;;12.95;9.02;;;8.80;99.90;;;;;;5114637;27;20046;-82
2022/09/30 07:31:02;;;;;;;13.60;7.78;;;8.90;99.90;;;;;;5114711;27;20043;-82
2022/09/30 07:33:31;;;;;;;12.60;7.70;;;9.00;99.90;;;;;;5098057;27;20502;-81
2022/09/30 07:35:57;;;;;;;14.98;8.88;;;9.00;99.90;;;;;;5114669;27;20038;-81
2022/09/30 07:38:26;;;;;;;12.90;8.52;;;9.10;99.90;;;;;;5114303;27;20047;-81
2022/09/30 07:40:55;;;;;;;14.15;8.73;;;9.20;99.90;;;;;;5097962;27;20062;-81
2022/09/30 07:43:22;;;;;;;14.45;8.98;;;9.30;99.90;;;;;;5114100;27;20039;-81
2022/09/30 07:45:48;;;;;;;14.13;8.43;;;9.30;99.90;;;;;;5097906;27;20415;-82
2022/09/30 07:48:41;;;;;;;14.43;8.73;;;9.40;99.90;;;;;;5097446;27;20117;-82
2022/09/30 07:50:59;;;;;;;13.90;8.00;;;9.50;99.90;;;;;;5113752;27;20039;-82
2022/09/30 07:53:25;;;;;;;14.40;8.68;;;9.60;99.90;;;;;;5114607;27;20129;-81
2022/09/30 07:55:51;;;;;;;12.20;7.50;;;9.70;99.90;;;;;;5114584;27;20085;-82
2022/09/30 07:58:17;;;;;;;13.90;7.93;;;9.80;99.90;;;;;;5113997;27;20070;-82
2022/09/30 08:00:42;;;;;;;12.32;7.30;;;9.90;99.90;;;;;;5114437;27;20039;-82
2022/09/30 08:03:08;;;;;;;12.88;7.05;;;10.10;99.90;;;;;;5096405;27;20127;-82
2022/09/30 08:05:44;;;;;;;11.57;6.97;;;10.10;99.90;;;;;;5097070;27;20028;-82
2022/09/30 08:08:11;;;;;;;11.43;6.90;;;10.20;99.90;;;;;;5097373;27;20042;-82
2022/09/30 08:10:36;;;;;;;12.45;7.82;;;10.30;99.90;;;;;;5097487;27;20412;-82
2022/09/30 08:13:02;;;;;;;11.35;7.22;;;10.40;99.90;;;;;;5113394;27;20512;-82
2022/09/30 08:15:27;;;;;;;12.65;6.57;;;10.50;99.90;;;;;;5097306;27;20055;-82
2022/09/30 08:17:53;;;;;;;10.90;6.47;;;10.60;99.90;;;;;;5113821;27;20058;-82
2022/09/30 08:20:18;;;;;;;10.40;6.63;;;10.70;99.90;;;;;;5096405;27;20035;-82
2022/09/30 08:22:44;;;;;;;12.30;6.82;;;10.80;99.90;;;;;;5112810;27;20035;-82
2022/09/30 08:25:09;;;;;;;10.90;6.72;;;10.80;99.90;;;;;;5097058;27;20035;-81
2022/09/30 08:27:35;;;;;;;12.07;6.05;;;11.00;99.90;;;;;;5113729;27;20411;-82
2022/09/30 08:30:01;;;;;;;11.68;6.13;;;11.00;99.90;;;;;;5096842;27;20035;-82
2022/09/30 08:32:30;;;;;;;9.95;5.97;;;11.10;99.90;;;;;;5113715;27;20051;-82
2022/09/30 08:34:55;;;;;;;10.20;5.75;;;11.20;99.90;;;;;;5096846;27;20066;-82
2022/09/30 08:37:21;;;;;;;10.18;5.75;;;11.30;99.90;;;;;;5113784;27;20078;-82
2022/09/30 08:39:47;;;;;;;10.02;5.97;;;11.30;99.90;;;;;;5113660;28;20511;-82
2022/09/30 08:42:45;;;;;;;10.52;6.30;;;11.40;99.90;;;;;;5113090;27;20038;-82
2022/09/30 08:45:25;;;;;;;10.13;6.50;;;11.50;99.90;;;;;;5113679;27;20035;-82
2022/09/30 08:48:05;;;;;;;10.77;6.53;;;11.60;99.90;;;;;;5113249;27;20050;-82
2022/09/30 08:51:07;;;;;;;10.10;6.07;;;11.70;99.90;;;;;;5113300;27;20404;-82
2022/09/30 08:53:38;;;;;;;11.30;6.35;;;11.70;99.90;;;;;;5058381;28;20058;-82
2022/09/30 08:56:05;;;;;;;12.07;6.97;;;11.80;99.90;;;;;;5113887;28;20042;-82
2022/09/30 08:58:35;;;;;;;10.77;6.40;;;11.90;99.90;;;;;;5112657;28;20062;-82
2022/09/30 09:01:27;;;;;;;11.50;7.60;;;12.00;99.90;;;;;;5112991;28;20043;-82
2022/09/30 09:03:53;;;;;;;10.67;6.70;;;12.10;99.90;;;;;;5096161;28;20489;-82
2022/09/30 09:06:53;;;;;;;10.65;6.85;;;12.10;99.90;;;;;;5112449;28;20279;-82
2022/09/30 09:09:38;;;;;;;13.07;7.18;;;12.20;99.90;;;;;;5097038;28;20039;-82
2022/09/30 09:12:13;;;;;;;12.65;7.93;;;12.40;99.90;;;;;;5096396;28;20069;-82
2022/09/30 09:15:06;;;;;;;13.05;10.38;;;12.40;99.90;;;;;;5097265;28;20071;-82
2022/09/30 09:17:57;;;;;;;12.80;7.30;;;12.60;99.90;;;;;;5096925;28;20054;-82
2022/09/30 09:20:30;;;;;;;11.68;7.80;;;12.70;99.90;;;;;;5113675;28;20457;-82
2022/09/30 09:22:56;;;;;;;11.55;10.05;;;12.70;99.90;;;;;;5113876;28;20043;-82
2022/09/30 09:25:28;;;;;;;12.32;8.18;;;12.90;99.90;;;;;;5096188;28;20042;-82
2022/09/30 09:28:24;;;;;;;9.95;6.30;;;13.00;99.90;;;;;;5110614;28;20044;-83
2022/09/30 09:30:56;;;;;;;10.48;7.55;;;13.00;99.90;;;;;;5090837;28;20055;-83
2022/09/30 09:33:30;;;;;;;15.10;8.90;;;13.10;99.90;;;;;;5114472;27;20500;-83
2022/09/30 09:36:04;;;;;;;11.52;7.38;;;13.20;99.90;;;;;;5117184;27;20408;-82
2022/09/30 09:38:37;;;;;;;11.05;8.10;;;13.30;99.90;;;;;;5100241;27;20043;-83
2022/09/30 09:41:24;;;;;;;11.82;7.43;;;13.40;99.90;;;;;;5116058;27;20039;-83
2022/09/30 09:44:25;;;;;;;10.52;7.38;;;13.50;99.90;;;;;;5100452;27;20572;-83
2022/09/30 09:47:04;;;;;;;10.85;9.07;;;13.60;99.90;;;;;;5116506;27;20035;-83
2022/09/30 09:49:34;;;;;;;11.20;8.13;;;13.70;99.90;;;;;;5115938;27;20042;-83
2022/09/30 09:52:12;;;;;;;12.35;10.25;;;13.80;99.90;;;;;;5099838;27;20038;-83
2022/09/30 09:54:46;;;;;;;12.75;9.45;;;13.90;99.90;;;;;;5099417;27;20043;-82
2022/09/30 09:57:15;;;;;;;12.63;10.52;;;14.00;99.90;;;;;;5116534;27;20435;-83
2022/09/30 10:03:02;;;;;;;13.70;10.52;;;14.20;99.90;;;;;;5116364;27;20043;-83
2022/09/30 10:05:31;;;;;;;14.13;11.95;;;14.20;99.90;;;;;;5116543;27;20096;-82
2022/09/30 10:08:15;;;;;;;15.77;12.88;;;14.30;99.90;;;;;;5116245;27;20046;-83
2022/09/30 10:11:00;;;;;;;16.00;13.25;;;14.40;99.90;;;;;;5116035;27;20043;-82
2022/09/30 10:13:30;;;;;;;16.15;14.55;;;14.50;99.90;;;;;;5116107;27;20058;-83
2022/09/30 10:15:58;;;;;;;15.48;12.80;;;14.60;99.90;;;;;;5099055;27;20118;-83
2022/09/30 10:18:33;;;;;;;15.52;13.95;;;14.60;99.90;;;;;;5115779;27;20496;-82
2022/09/30 10:21:05;;;;;;;16.13;11.90;;;14.70;99.90;;;;;;5099122;27;20114;-83
2022/09/30 10:23:37;;;;;;;14.47;11.17;;;14.70;99.90;;;;;;5116196;27;20074;-83
2022/09/30 10:26:17;;;;;;;14.00;10.13;;;14.70;99.90;;;;;;5116079;27;20039;-82
2022/09/30 10:28:47;;;;;;;14.30;12.27;;;14.80;99.90;;;;;;5116235;27;20377;-83
2022/09/30 10:31:28;;;;;;;15.38;12.80;;;14.90;99.90;;;;;;5115362;27;20583;-83
2022/09/30 10:34:22;;;;;;;14.30;11.90;;;15.00;99.90;;;;;;5098658;27;20043;-83
2022/09/30 10:36:48;;;;;;;13.25;9.93;;;15.10;99.90;;;;;;5115624;27;20039;-83
2022/09/30 10:39:23;;;;;;;11.65;10.40;;;15.10;99.90;;;;;;5116044;27;20085;-83
2022/09/30 10:41:51;;;;;;;12.35;11.05;;;15.20;99.90;;;;;;5115202;27;20043;-83
2022/09/30 10:44:21;;;;;;;14.73;10.35;;;15.30;99.90;;;;;;5115370;27;20069;-83
2022/09/30 10:46:49;;;;;;;12.30;9.82;;;15.30;99.90;;;;;;5115965;27;20515;-82
2022/09/30 10:49:45;;;;;;;12.23;8.65;;;15.40;99.90;;;;;;5119925;27;20557;-83
2022/09/30 10:52:21;;;;;;;12.05;9.80;;;15.40;99.90;;;;;;5124698;27;20034;-83
2022/09/30 10:54:55;;;;;;;11.68;8.18;;;15.50;99.90;;;;;;5136169;27;20035;-83
2022/09/30 10:57:31;;;;;;;12.80;9.35;;;15.50;99.90;;;;;;5135873;27;20035;-83
2022/09/30 11:00:08;;;;;;;12.20;8.48;;;15.60;99.90;;;;;;5107573;27;20715;-82
2022/09/30 11:02:43;;;;;;;12.75;10.32;;;15.60;99.90;;;;;;5135740;27;20074;-83
2022/09/30 11:05:29;;;;;;;12.02;10.02;;;15.70;99.90;;;;;;5135465;27;20034;-82
2022/09/30 11:08:01;;;;;;;15.20;11.50;;;15.80;99.90;;;;;;5115560;27;20046;-83
2022/09/30 11:10:52;;;;;;;14.35;11.95;;;15.90;99.90;;;;;;5118105;27;20039;-82
2022/09/30 11:13:34;;;;;;;15.57;12.32;;;16.10;99.90;;;;;;5115350;27;20114;-83
2022/09/30 11:16:04;;;;;;;15.80;10.23;;;16.20;99.90;;;;;;5123509;27;20043;-82
2022/09/30 11:19:04;;;;;;;17.73;14.25;;;16.20;99.90;;;;;;5123792;27;20041;-83
2022/09/30 11:22:07;;;;;;;16.30;13.75;;;16.20;99.90;;;;;;5125705;27;20062;-82
2022/09/30 11:24:41;;;;;;;16.73;10.23;;;16.30;99.90;;;;;;5125521;27;20031;-83
2022/09/30 11:27:41;;;;;;;15.57;13.80;;;16.30;99.90;;;;;;5123917;27;20035;-82
2022/09/30 11:30:31;;;;;;;12.18;9.50;;;16.30;99.90;;;;;;5103767;27;20035;-82
2022/09/30 11:33:15;;;;;;;11.63;9.27;;;16.40;99.90;;;;;;5144258;27;20492;-82
2022/09/30 11:36:00;;;;;;;15.90;14.13;;;16.40;99.90;;;;;;5125595;27;20045;-82
2022/09/30 11:38:50;;;;;;;16.52;14.82;;;16.50;99.90;;;;;;5101359;27;20045;-82
2022/09/30 11:41:29;;;;;;;13.90;12.40;;;16.60;99.90;;;;;;5131404;27;20496;-82
2022/09/30 11:44:23;;;;;;;15.13;12.00;;;16.70;99.90;;;;;;5098265;27;20035;-82
2022/09/30 11:47:18;;;;;;;15.20;13.48;;;16.70;99.90;;;;;;5097878;27;20057;-82
2022/09/30 11:50:17;;;;;;;13.57;12.18;;;16.70;99.90;;;;;;5132122;27;20043;-82
2022/09/30 11:53:03;;;;;;;13.60;11.93;;;16.50;99.90;;;;;;5097051;27;20065;-82
2022/09/30 11:55:39;;;;;;;14.73;13.23;;;16.60;99.90;;;;;;5115064;27;20038;-82
2022/09/30 11:58:12;;;;;;;15.93;14.32;;;16.80;99.90;;;;;;5131553;27;20126;-83
2022/09/30 12:00:43;;;;;;;14.95;12.23;;;16.90;99.90;;;;;;5114496;27;20555;-82
2022/09/30 12:03:34;;;;;;;15.30;13.70;;;16.80;99.90;;;;;;5114112;27;20046;-82
2022/09/30 12:06:12;;;;;;;14.60;13.10;;;16.70;99.90;;;;;;5131426;27;20031;-82
2022/09/30 12:08:48;;;;;;;14.95;13.38;;;16.80;99.90;;;;;;5121486;27;20083;-82
2022/09/30 12:11:20;;;;;;;14.43;12.45;;;16.90;99.90;;;;;;5119442;27;20203;-82
2022/09/30 12:13:58;;;;;;;14.23;12.73;;;17.00;99.90;;;;;;5130210;27;20099;-82
2022/09/30 12:16:28;;;;;;;15.30;13.05;;;16.90;99.60;;;;;;5134674;27;20039;-82
2022/09/30 12:18:58;;;;;;;13.73;11.50;;;16.90;97.90;;;;;;5134630;27;20053;-82
2022/09/30 12:21:31;;;;;;;16.45;11.10;;;17.00;98.80;;;;;;5117177;27;20031;-82
2022/09/30 12:24:12;;;;;;;12.45;11.10;;;17.10;99.50;;;;;;5134528;27;20046;-82
2022/09/30 12:26:39;;;;;;;13.35;11.20;;;17.20;96.60;;;;;;5117655;27;20073;-82
2022/09/30 12:32:18;;;;;;;12.63;11.32;;;17.50;97.80;;;;;;5133653;27;20051;-82
2022/09/30 12:35:14;;;;;;;12.88;9.35;;;17.70;97.00;;;;;;5134540;27;20097;-83
2022/09/30 12:38:21;;;;;;;13.93;11.77;;;17.70;96.70;;;;;;5134161;27;20496;-82
2022/09/30 12:41:25;;;;;;;12.98;11.52;;;17.50;97.30;;;;;;5115938;27;20042;-82
2022/09/30 12:44:11;;;;;;;12.77;11.23;;;17.60;98.00;;;;;;5134671;27;20115;-82
2022/09/30 12:47:05;;;;;;;13.73;11.85;;;17.60;93.80;;;;;;5134275;27;20475;-82
2022/09/30 12:49:32;;;;;;;12.52;11.20;;;17.70;94.80;;;;;;5116699;27;20080;-83
2022/09/30 12:52:05;;;;;;;13.93;12.32;;;17.90;96.80;;;;;;5116663;27;20039;-83
2022/09/30 12:54:35;;;;;;;14.20;11.93;;;18.00;93.40;;;;;;5133832;27;20039;-82
2022/09/30 12:57:06;;;;;;;15.05;13.23;;;18.00;92.30;;;;;;5116549;27;20042;-82
2022/09/30 12:59:35;;;;;;;14.98;13.48;;;18.00;92.30;;;;;;5116784;27;20030;-83
2022/09/30 13:02:06;;;;;;;14.70;13.20;;;18.00;91.80;;;;;;5133943;27;20038;-83
2022/09/30 13:04:36;;;;;;;15.57;13.10;;;17.90;94.90;;;;;;5134559;27;20035;-83
2022/09/30 13:07:02;;;;;;;14.90;13.38;;;18.10;95.30;;;;;;5134221;27;20035;-83
2022/09/30 13:09:27;;;;;;;15.48;13.90;;;18.30;94.50;;;;;;5137176;27;20047;-83
2022/09/30 13:11:59;;;;;;;14.25;12.75;;;18.60;92.50;;;;;;5120699;27;20045;-83
2022/09/30 13:14:36;;;;;;;13.70;12.25;;;19.00;89.50;;;;;;5129183;27;20490;-83
2022/09/30 13:17:09;;;;;;;13.25;11.93;;;19.20;87.40;;;;;;5127130;27;20092;-82
2022/09/30 13:19:39;;;;;;;17.55;12.60;;;19.80;83.90;;;;;;5126978;27;20083;-82
2022/09/30 13:22:20;;;;;;;13.15;11.80;;;19.70;78.50;;;;;;5135156;27;20039;-82